Flight Track Log - Related Links

Times and Time Zones

All times are in EDT time to prevent confusion due to time zone crossing. See the EJA922 flight status page for this flight to view local times or setup timezone preferences in your user account.

Time Position Orientation Groundspeed Altitude Reporting Facility
EDT Latitude Longitude Course Direction KTS MPH feet Rate Location/Type
Thu 12:18:21 PM 39.9667 -105.1333 199° South 224 258 8,200  Level Denver TRACON
Thu 12:19:12 PM 39.9458 -105.0614 111° Southeast 245 282 10,600 2,230 Climbing Denver Center
Thu 12:20:14 PM 39.8703 -104.9933 145° Southeast 335 386 12,400 1,632 Climbing Denver Center
Thu 12:21:28 PM 39.7672 -104.9622 167° South 384 442 14,300 2,206 Climbing Denver Center
Thu 12:22:30 PM 39.6356 -104.9211 166° South 397 457 17,400 2,468 Climbing Denver Center
Thu 12:23:00 PM 39.2706 -104.6372 199° South  Level FlightAware Approximate
Thu 12:23:32 PM 39.5169 -104.8836 166° South 414 476 19,400  Level Denver Center
Thu 12:24:34 PM 39.4081 -104.8519 167° South 404 465 21,500 2,129 Climbing Denver Center
Thu 12:25:36 PM 39.2886 -104.8350 174° South 396 456 23,800 1,935 Climbing Denver Center
Thu 12:26:38 PM 39.1889 -104.8708 196° South 389 448 25,500 1,065 Climbing Denver Center
Thu 12:27:40 PM 39.0844 -104.9072 195° South 387 445 26,000 240 Climbing Denver Center
Thu 12:28:43 PM 38.9675 -104.9500 196° South 428 493 26,000  Level Denver Center
Thu 12:29:45 PM 38.8286 -104.9992 195° South 455 524 26,000  Level Denver Center
Thu 12:30:47 PM 38.6831 -105.0508 195° South 482 555 26,000  Level Denver Center
Thu 12:31:49 PM 38.5569 -105.0947 195° South 489 563 26,000  Level Denver Center
Thu 12:32:51 PM 38.4325 -105.1392 196° South 486 559 26,000  Level Denver Center
Thu 12:33:53 PM 38.2858 -105.1900 195° South 488 562 26,000  Level Denver Center
Thu 12:34:55 PM 38.1586 -105.2356 196° South 494 568 26,000  Level Denver Center
Thu 12:35:57 PM 38.0114 -105.2842 195° South 491 565 26,000  Level Denver Center
Thu 12:36:59 PM 37.8850 -105.3289 196° South 493 567 26,000  Level Denver Center
Thu 12:38:01 PM 37.7369 -105.3811 196° South 493 567 26,000  Level Denver Center
Thu 12:39:03 PM 37.6089 -105.4239 195° South 496 571 26,000  Level Denver Center
Thu 12:40:05 PM 37.4703 -105.4725 196° South 493 567 26,000  Level Denver Center
Thu 12:41:07 PM 37.3225 -105.5236 195° South 493 567 26,000  Level Denver Center
Thu 12:42:09 PM 37.1842 -105.5669 194° South 499 574 26,000  Level Denver Center
Thu 12:43:11 PM 37.0581 -105.6097 195° South 494 568 26,000  Level Denver Center
Thu 12:44:13 PM 36.9111 -105.6617 196° South 492 566 26,000  Level Denver Center
Thu 12:45:15 PM 36.7825 -105.7036 195° South 493 567 26,000  Level Denver Center
Thu 12:46:17 PM 36.6361 -105.7519 195° South 488 562 26,000 -823 Level Denver Center
Thu 12:47:19 PM 36.5189 -105.7914 195° South 465 535 24,300 -2,016 Descending Denver Center
Thu 12:48:22 PM 36.3992 -105.8317 195° South 445 512 21,800 -2,352 Descending Denver Center
Thu 12:49:24 PM 36.2819 -105.8686 194° South 424 488 19,400 -2,308 Descending Denver Center
Thu 12:50:45 PM 36.1542 -105.9144 196° South 365 420 16,300 -2,434 Descending Albuquerque Center
Thu 12:51:47 PM 36.0619 -105.9458 195° South 346 398 13,600 -1,597 Descending Albuquerque Center
Thu 12:52:49 PM 35.9692 -105.9753 194° South 344 396 13,000 -290 Descending Albuquerque Center
Thu 12:53:51 PM 35.9247 -106.0550 235° Southwest 310 357 13,000  Level Albuquerque Center
Thu 12:54:53 PM 35.9014 -106.1767 257° West 306 352 13,000 -48 Level Albuquerque Center
Thu 12:55:55 PM 35.8758 -106.2708 252° West 299 344 12,900  Descending Albuquerque Center
Thu 12:56:57 PM 35.8017 -106.2608 174° South 305 351 13,000 -290 Climbing Albuquerque Center
Thu 12:57:59 PM 35.7475 -106.1858 132° Southeast 296 341 12,300 -1,355 Descending Albuquerque Center
Thu 12:59:01 PM 35.7017 -106.1144 128° Southeast 283 326 10,200 -2,032 Descending Albuquerque Center

Login

Don't have an account? Register now (free) for customized features, flight alerts, and more!